sensor_id;sensor_type;location;lat;lon;timestamp;temperature;humidity
63202;DHT22;49296;48.188;11.566;2022-11-20T00:00:03;6.32;77.87
63202;DHT22;49296;48.188;11.566;2022-11-20T00:02:29;6.34;77.83
63202;DHT22;49296;48.188;11.566;2022-11-20T00:04:56;6.55;77.61
63202;DHT22;49296;48.188;11.566;2022-11-20T00:07:22;6.47;77.25
63202;DHT22;49296;48.188;11.566;2022-11-20T00:09:49;6.44;77.62
63202;DHT22;49296;48.188;11.566;2022-11-20T00:12:15;6.58;77.35
63202;DHT22;49296;48.188;11.566;2022-11-20T00:14:42;6.50;77.31
63202;DHT22;49296;48.188;11.566;2022-11-20T00:17:10;6.64;77.16
63202;DHT22;49296;48.188;11.566;2022-11-20T00:19:36;6.61;77.11
63202;DHT22;49296;48.188;11.566;2022-11-20T00:22:03;6.54;77.33
63202;DHT22;49296;48.188;11.566;2022-11-20T00:24:29;6.46;77.55
63202;DHT22;49296;48.188;11.566;2022-11-20T00:26:56;6.41;77.46
63202;DHT22;49296;48.188;11.566;2022-11-20T00:29:22;6.44;78.19
63202;DHT22;49296;48.188;11.566;2022-11-20T00:31:49;6.63;78.57
63202;DHT22;49296;48.188;11.566;2022-11-20T00:34:17;6.54;77.38
63202;DHT22;49296;48.188;11.566;2022-11-20T00:36:43;6.58;77.29
63202;DHT22;49296;48.188;11.566;2022-11-20T00:39:10;6.47;78.10
63202;DHT22;49296;48.188;11.566;2022-11-20T00:41:36;6.65;77.86
63202;DHT22;49296;48.188;11.566;2022-11-20T00:44:03;6.61;77.49
63202;DHT22;49296;48.188;11.566;2022-11-20T00:46:30;6.55;77.79
63202;DHT22;49296;48.188;11.566;2022-11-20T00:48:56;6.47;77.71
63202;DHT22;49296;48.188;11.566;2022-11-20T00:51:25;6.57;77.67
63202;DHT22;49296;48.188;11.566;2022-11-20T00:53:54;6.51;77.17
63202;DHT22;49296;48.188;11.566;2022-11-20T00:56:21;6.43;77.68
63202;DHT22;49296;48.188;11.566;2022-11-20T00:58:47;6.34;77.84
63202;DHT22;49296;48.188;11.566;2022-11-20T01:01:15;6.40;77.86
63202;DHT22;49296;48.188;11.566;2022-11-20T01:03:43;6.50;77.83
63202;DHT22;49296;48.188;11.566;2022-11-20T01:06:10;6.57;77.38
63202;DHT22;49296;48.188;11.566;2022-11-20T01:08:38;6.63;77.03
63202;DHT22;49296;48.188;11.566;2022-11-20T01:11:06;6.61;77.18
63202;DHT22;49296;48.188;11.566;2022-11-20T01:13:32;6.74;77.00
63202;DHT22;49296;48.188;11.566;2022-11-20T01:16:06;6.75;76.51
63202;DHT22;49296;48.188;11.566;2022-11-20T01:18:33;6.57;77.05
63202;DHT22;49296;48.188;11.566;2022-11-20T01:21:01;6.75;76.82
63202;DHT22;49296;48.188;11.566;2022-11-20T01:23:30;6.57;77.09
63202;DHT22;49296;48.188;11.566;2022-11-20T01:25:58;6.63;76.62
63202;DHT22;49296;48.188;11.566;2022-11-20T01:28:25;6.77;77.02
63202;DHT22;49296;48.188;11.566;2022-11-20T01:30:51;6.82;77.26
63202;DHT22;49296;48.188;11.566;2022-11-20T01:33:18;6.78;77.05
63202;DHT22;49296;48.188;11.566;2022-11-20T01:35:44;6.91;76.82
63202;DHT22;49296;48.188;11.566;2022-11-20T01:38:11;6.92;76.76
63202;DHT22;49296;48.188;11.566;2022-11-20T01:40:37;7.02;76.42
63202;DHT22;49296;48.188;11.566;2022-11-20T01:43:10;6.81;75.59
63202;DHT22;49296;48.188;11.566;2022-11-20T01:46:06;6.74;75.90
63202;DHT22;49296;48.188;11.566;2022-11-20T01:48:38;6.47;76.76
63202;DHT22;49296;48.188;11.566;2022-11-20T01:51:08;6.50;76.42
63202;DHT22;49296;48.188;11.566;2022-11-20T01:53:37;6.48;76.66
63202;DHT22;49296;48.188;11.566;2022-11-20T01:56:05;6.64;76.10
63202;DHT22;49296;48.188;11.566;2022-11-20T01:58:36;6.60;76.13
63202;DHT22;49296;48.188;11.566;2022-11-20T02:01:04;6.60;76.10
63202;DHT22;49296;48.188;11.566;2022-11-20T02:03:31;6.50;76.80
63202;DHT22;49296;48.188;11.566;2022-11-20T02:06:00;6.58;76.29
63202;DHT22;49296;48.188;11.566;2022-11-20T02:08:28;6.61;76.48
63202;DHT22;49296;48.188;11.566;2022-11-20T02:10:55;6.63;76.36
63202;DHT22;49296;48.188;11.566;2022-11-20T02:13:21;6.57;76.49
63202;DHT22;49296;48.188;11.566;2022-11-20T02:16:09;6.64;76.47
63202;DHT22;49296;48.188;11.566;2022-11-20T02:18:36;6.67;76.25
63202;DHT22;49296;48.188;11.566;2022-11-20T02:21:03;6.77;75.98
63202;DHT22;49296;48.188;11.566;2022-11-20T02:23:33;6.57;76.24
63202;DHT22;49296;48.188;11.566;2022-11-20T02:26:04;6.70;76.29
63202;DHT22;49296;48.188;11.566;2022-11-20T02:28:32;6.74;75.85
63202;DHT22;49296;48.188;11.566;2022-11-20T02:30:58;6.55;76.51
63202;DHT22;49296;48.188;11.566;2022-11-20T02:33:25;6.57;76.20
63202;DHT22;49296;48.188;11.566;2022-11-20T02:35:51;6.61;75.92
63202;DHT22;49296;48.188;11.566;2022-11-20T02:38:18;6.57;75.94
63202;DHT22;49296;48.188;11.566;2022-11-20T02:40:44;6.40;76.39
63202;DHT22;49296;48.188;11.566;2022-11-20T02:43:12;6.36;76.49
63202;DHT22;49296;48.188;11.566;2022-11-20T02:45:39;6.41;76.21
63202;DHT22;49296;48.188;11.566;2022-11-20T02:48:08;6.32;76.67
63202;DHT22;49296;48.188;11.566;2022-11-20T02:50:36;6.32;76.62
63202;DHT22;49296;48.188;11.566;2022-11-20T02:53:03;6.44;76.71
63202;DHT22;49296;48.188;11.566;2022-11-20T02:55:29;6.51;76.34
63202;DHT22;49296;48.188;11.566;2022-11-20T02:57:56;6.46;76.35
63202;DHT22;49296;48.188;11.566;2022-11-20T03:00:24;6.48;76.19
63202;DHT22;49296;48.188;11.566;2022-11-20T03:02:50;6.57;75.88
63202;DHT22;49296;48.188;11.566;2022-11-20T03:05:17;6.55;75.91
63202;DHT22;49296;48.188;11.566;2022-11-20T03:07:44;6.50;75.72
63202;DHT22;49296;48.188;11.566;2022-11-20T03:10:10;6.54;75.84
63202;DHT22;49296;48.188;11.566;2022-11-20T03:12:37;6.58;75.81
63202;DHT22;49296;48.188;11.566;2022-11-20T03:15:04;6.44;75.78
63202;DHT22;49296;48.188;11.566;2022-11-20T03:17:32;6.37;75.91
63202;DHT22;49296;48.188;11.566;2022-11-20T03:19:58;6.47;75.74
63202;DHT22;49296;48.188;11.566;2022-11-20T03:22:25;6.44;75.96
63202;DHT22;49296;48.188;11.566;2022-11-20T03:24:51;6.51;75.30
63202;DHT22;49296;48.188;11.566;2022-11-20T03:27:18;6.50;74.93
63202;DHT22;49296;48.188;11.566;2022-11-20T03:29:44;6.46;75.35
63202;DHT22;49296;48.188;11.566;2022-11-20T03:32:11;6.51;75.19
63202;DHT22;49296;48.188;11.566;2022-11-20T03:34:39;6.55;74.82
63202;DHT22;49296;48.188;11.566;2022-11-20T03:37:05;6.37;75.18
63202;DHT22;49296;48.188;11.566;2022-11-20T03:39:32;6.34;74.99
63202;DHT22;49296;48.188;11.566;2022-11-20T03:41:59;6.43;74.95
63202;DHT22;49296;48.188;11.566;2022-11-20T03:44:27;6.28;74.94
63202;DHT22;49296;48.188;11.566;2022-11-20T03:46:53;6.36;74.63
63202;DHT22;49296;48.188;11.566;2022-11-20T03:49:20;6.53;74.47
63202;DHT22;49296;48.188;11.566;2022-11-20T03:51:47;6.50;74.34
63202;DHT22;49296;48.188;11.566;2022-11-20T03:54:14;6.51;74.25
63202;DHT22;49296;48.188;11.566;2022-11-20T03:56:40;6.50;74.35
63202;DHT22;49296;48.188;11.566;2022-11-20T03:59:09;6.48;74.38
63202;DHT22;49296;48.188;11.566;2022-11-20T04:01:36;6.29;74.93
63202;DHT22;49296;48.188;11.566;2022-11-20T04:04:03;6.25;74.74
63202;DHT22;49296;48.188;11.566;2022-11-20T04:06:30;6.30;74.45
63202;DHT22;49296;48.188;11.566;2022-11-20T04:08:58;6.44;74.40
63202;DHT22;49296;48.188;11.566;2022-11-20T04:11:25;6.44;74.02
63202;DHT22;49296;48.188;11.566;2022-11-20T04:13:53;6.30;73.93
63202;DHT22;49296;48.188;11.566;2022-11-20T04:16:20;6.34;74.05
63202;DHT22;49296;48.188;11.566;2022-11-20T04:18:47;6.41;73.58
63202;DHT22;49296;48.188;11.566;2022-11-20T04:21:13;6.26;74.04
63202;DHT22;49296;48.188;11.566;2022-11-20T04:23:40;6.32;73.88
63202;DHT22;49296;48.188;11.566;2022-11-20T04:26:09;6.39;73.95
63202;DHT22;49296;48.188;11.566;2022-11-20T04:28:36;6.44;73.83
63202;DHT22;49296;48.188;11.566;2022-11-20T04:31:03;6.60;73.24
63202;DHT22;49296;48.188;11.566;2022-11-20T04:33:30;6.39;73.84
63202;DHT22;49296;48.188;11.566;2022-11-20T04:35:59;6.48;73.46
63202;DHT22;49296;48.188;11.566;2022-11-20T04:38:26;6.53;73.48
63202;DHT22;49296;48.188;11.566;2022-11-20T04:40:55;6.63;73.21
63202;DHT22;49296;48.188;11.566;2022-11-20T04:43:23;6.64;72.96
63202;DHT22;49296;48.188;11.566;2022-11-20T04:45:50;6.64;73.34
63202;DHT22;49296;48.188;11.566;2022-11-20T04:48:16;6.44;73.64
63202;DHT22;49296;48.188;11.566;2022-11-20T04:50:43;6.39;73.66
63202;DHT22;49296;48.188;11.566;2022-11-20T04:53:09;6.41;73.99
63202;DHT22;49296;48.188;11.566;2022-11-20T04:55:36;6.70;73.55
63202;DHT22;49296;48.188;11.566;2022-11-20T04:58:02;6.63;73.52
63202;DHT22;49296;48.188;11.566;2022-11-20T05:00:30;6.63;73.86
63202;DHT22;49296;48.188;11.566;2022-11-20T05:02:57;6.61;73.48
63202;DHT22;49296;48.188;11.566;2022-11-20T05:05:23;6.80;73.36
63202;DHT22;49296;48.188;11.566;2022-11-20T05:07:50;6.75;73.30
63202;DHT22;49296;48.188;11.566;2022-11-20T05:10:16;6.64;73.87
63202;DHT22;49296;48.188;11.566;2022-11-20T05:12:43;6.71;73.19
63202;DHT22;49296;48.188;11.566;2022-11-20T05:15:10;6.47;73.92
63202;DHT22;49296;48.188;11.566;2022-11-20T05:17:37;6.60;73.69
63202;DHT22;49296;48.188;11.566;2022-11-20T05:20:04;6.58;73.46
63202;DHT22;49296;48.188;11.566;2022-11-20T05:22:31;6.64;73.43
63202;DHT22;49296;48.188;11.566;2022-11-20T05:24:57;6.40;74.20
63202;DHT22;49296;48.188;11.566;2022-11-20T05:27:24;6.43;73.97
63202;DHT22;49296;48.188;11.566;2022-11-20T05:29:50;6.44;73.61
63202;DHT22;49296;48.188;11.566;2022-11-20T05:32:17;6.43;73.68
63202;DHT22;49296;48.188;11.566;2022-11-20T05:34:45;6.44;73.66
63202;DHT22;49296;48.188;11.566;2022-11-20T05:37:11;6.33;74.10
63202;DHT22;49296;48.188;11.566;2022-11-20T05:39:38;6.37;73.98
63202;DHT22;49296;48.188;11.566;2022-11-20T05:42:04;6.47;73.86
63202;DHT22;49296;48.188;11.566;2022-11-20T05:44:48;6.33;74.22
63202;DHT22;49296;48.188;11.566;2022-11-20T05:47:15;6.36;74.33
63202;DHT22;49296;48.188;11.566;2022-11-20T05:49:41;6.29;74.38
63202;DHT22;49296;48.188;11.566;2022-11-20T05:52:09;6.29;74.32
63202;DHT22;49296;48.188;11.566;2022-11-20T05:54:36;6.33;74.07
63202;DHT22;49296;48.188;11.566;2022-11-20T05:57:03;6.33;74.04
63202;DHT22;49296;48.188;11.566;2022-11-20T05:59:29;6.18;74.54
63202;DHT22;49296;48.188;11.566;2022-11-20T06:01:56;6.36;73.89
63202;DHT22;49296;48.188;11.566;2022-11-20T06:04:22;6.32;74.00
63202;DHT22;49296;48.188;11.566;2022-11-20T06:06:49;6.25;74.38
63202;DHT22;49296;48.188;11.566;2022-11-20T06:09:17;6.33;74.24
63202;DHT22;49296;48.188;11.566;2022-11-20T06:11:43;6.28;74.24
63202;DHT22;49296;48.188;11.566;2022-11-20T06:14:10;6.22;74.28
63202;DHT22;49296;48.188;11.566;2022-11-20T06:16:36;6.26;74.51
63202;DHT22;49296;48.188;11.566;2022-11-20T06:19:03;6.23;73.97
63202;DHT22;49296;48.188;11.566;2022-11-20T06:21:29;6.19;74.06
63202;DHT22;49296;48.188;11.566;2022-11-20T06:23:56;6.16;74.03
63202;DHT22;49296;48.188;11.566;2022-11-20T06:26:25;6.16;73.95
63202;DHT22;49296;48.188;11.566;2022-11-20T06:28:52;6.19;73.95
63202;DHT22;49296;48.188;11.566;2022-11-20T06:31:19;6.28;73.50
63202;DHT22;49296;48.188;11.566;2022-11-20T06:33:46;6.25;73.48
63202;DHT22;49296;48.188;11.566;2022-11-20T06:36:14;6.15;73.45
63202;DHT22;49296;48.188;11.566;2022-11-20T06:38:40;6.18;73.43
63202;DHT22;49296;48.188;11.566;2022-11-20T06:41:08;6.16;72.72
63202;DHT22;49296;48.188;11.566;2022-11-20T06:43:37;6.19;72.73
63202;DHT22;49296;48.188;11.566;2022-11-20T06:46:04;6.16;71.73
63202;DHT22;49296;48.188;11.566;2022-11-20T06:48:31;6.18;72.11
63202;DHT22;49296;48.188;11.566;2022-11-20T06:50:57;6.09;72.32
63202;DHT22;49296;48.188;11.566;2022-11-20T06:53:24;6.19;72.56
63202;DHT22;49296;48.188;11.566;2022-11-20T06:55:51;6.25;71.55
63202;DHT22;49296;48.188;11.566;2022-11-20T06:58:17;6.25;71.46
63202;DHT22;49296;48.188;11.566;2022-11-20T07:00:45;6.25;71.31
63202;DHT22;49296;48.188;11.566;2022-11-20T07:03:12;6.29;70.99
63202;DHT22;49296;48.188;11.566;2022-11-20T07:05:38;6.26;71.27
63202;DHT22;49296;48.188;11.566;2022-11-20T07:08:05;6.36;70.79
63202;DHT22;49296;48.188;11.566;2022-11-20T07:10:32;6.29;70.52
63202;DHT22;49296;48.188;11.566;2022-11-20T07:12:58;6.30;71.10
63202;DHT22;49296;48.188;11.566;2022-11-20T07:15:25;6.26;70.79
63202;DHT22;49296;48.188;11.566;2022-11-20T07:17:53;6.25;70.96
63202;DHT22;49296;48.188;11.566;2022-11-20T07:20:20;6.32;71.02
63202;DHT22;49296;48.188;11.566;2022-11-20T07:22:46;6.30;70.87
63202;DHT22;49296;48.188;11.566;2022-11-20T07:25:13;6.32;70.99
63202;DHT22;49296;48.188;11.566;2022-11-20T07:27:39;6.33;71.24
63202;DHT22;49296;48.188;11.566;2022-11-20T07:30:06;6.39;70.79
63202;DHT22;49296;48.188;11.566;2022-11-20T07:32:33;6.30;71.53
63202;DHT22;49296;48.188;11.566;2022-11-20T07:35:01;6.33;71.34
63202;DHT22;49296;48.188;11.566;2022-11-20T07:37:27;6.36;71.34
63202;DHT22;49296;48.188;11.566;2022-11-20T07:39:54;6.29;71.71
63202;DHT22;49296;48.188;11.566;2022-11-20T07:42:20;6.44;71.24
63202;DHT22;49296;48.188;11.566;2022-11-20T07:44:47;6.46;71.14
63202;DHT22;49296;48.188;11.566;2022-11-20T07:47:13;6.36;71.61
63202;DHT22;49296;48.188;11.566;2022-11-20T07:49:40;6.36;71.78
63202;DHT22;49296;48.188;11.566;2022-11-20T07:52:08;6.44;71.56
63202;DHT22;49296;48.188;11.566;2022-11-20T07:54:34;6.39;71.44
63202;DHT22;49296;48.188;11.566;2022-11-20T07:57:01;6.43;71.37
63202;DHT22;49296;48.188;11.566;2022-11-20T07:59:27;6.40;71.75
63202;DHT22;49296;48.188;11.566;2022-11-20T08:01:54;6.30;71.97
63202;DHT22;49296;48.188;11.566;2022-11-20T08:04:21;6.32;72.13
63202;DHT22;49296;48.188;11.566;2022-11-20T08:06:48;6.41;71.98
63202;DHT22;49296;48.188;11.566;2022-11-20T08:09:16;6.43;72.26
63202;DHT22;49296;48.188;11.566;2022-11-20T08:11:43;6.41;72.18
63202;DHT22;49296;48.188;11.566;2022-11-20T08:14:23;6.48;72.14
63202;DHT22;49296;48.188;11.566;2022-11-20T08:16:50;6.46;72.05
63202;DHT22;49296;48.188;11.566;2022-11-20T08:19:17;6.50;71.87
63202;DHT22;49296;48.188;11.566;2022-11-20T08:21:44;6.61;71.62
63202;DHT22;49296;48.188;11.566;2022-11-20T08:24:10;6.57;71.98
63202;DHT22;49296;48.188;11.566;2022-11-20T08:26:39;6.51;71.91
63202;DHT22;49296;48.188;11.566;2022-11-20T08:29:05;6.50;71.86
63202;DHT22;49296;48.188;11.566;2022-11-20T08:31:32;6.65;71.72
63202;DHT22;49296;48.188;11.566;2022-11-20T08:33:59;6.55;71.27
63202;DHT22;49296;48.188;11.566;2022-11-20T08:36:25;6.53;71.91
63202;DHT22;49296;48.188;11.566;2022-11-20T08:38:52;6.53;71.92
63202;DHT22;49296;48.188;11.566;2022-11-20T08:41:19;6.63;71.72
63202;DHT22;49296;48.188;11.566;2022-11-20T08:43:54;6.67;71.03
63202;DHT22;49296;48.188;11.566;2022-11-20T08:46:21;6.75;70.47
63202;DHT22;49296;48.188;11.566;2022-11-20T08:48:47;6.78;70.64
63202;DHT22;49296;48.188;11.566;2022-11-20T08:51:14;6.71;70.96
63202;DHT22;49296;48.188;11.566;2022-11-20T08:53:41;6.63;70.91
63202;DHT22;49296;48.188;11.566;2022-11-20T08:56:07;6.81;70.88
63202;DHT22;49296;48.188;11.566;2022-11-20T08:58:35;6.81;70.82
63202;DHT22;49296;48.188;11.566;2022-11-20T09:01:03;6.98;71.68
63202;DHT22;49296;48.188;11.566;2022-11-20T09:03:29;7.09;70.24
63202;DHT22;49296;48.188;11.566;2022-11-20T09:05:57;7.09;69.49
63202;DHT22;49296;48.188;11.566;2022-11-20T09:08:23;7.22;69.32
63202;DHT22;49296;48.188;11.566;2022-11-20T09:10:51;7.19;69.56
63202;DHT22;49296;48.188;11.566;2022-11-20T09:13:17;7.30;69.88
63202;DHT22;49296;48.188;11.566;2022-11-20T09:15:44;7.19;68.68
63202;DHT22;49296;48.188;11.566;2022-11-20T09:18:12;7.28;68.75
63202;DHT22;49296;48.188;11.566;2022-11-20T09:20:38;7.36;68.01
63202;DHT22;49296;48.188;11.566;2022-11-20T09:23:05;7.27;68.05
63202;DHT22;49296;48.188;11.566;2022-11-20T09:25:31;7.22;68.00
63202;DHT22;49296;48.188;11.566;2022-11-20T09:27:58;7.19;68.30
63202;DHT22;49296;48.188;11.566;2022-11-20T09:30:25;7.06;68.18
63202;DHT22;49296;48.188;11.566;2022-11-20T09:32:52;7.08;68.15
63202;DHT22;49296;48.188;11.566;2022-11-20T09:35:20;7.22;67.92
63202;DHT22;49296;48.188;11.566;2022-11-20T09:37:46;7.23;68.19
63202;DHT22;49296;48.188;11.566;2022-11-20T09:40:17;7.36;67.58
63202;DHT22;49296;48.188;11.566;2022-11-20T09:42:45;7.37;67.44
63202;DHT22;49296;48.188;11.566;2022-11-20T09:45:20;7.48;67.16
63202;DHT22;49296;48.188;11.566;2022-11-20T09:47:58;7.53;66.64
63202;DHT22;49296;48.188;11.566;2022-11-20T09:50:31;7.57;66.91
63202;DHT22;49296;48.188;11.566;2022-11-20T09:53:11;7.55;67.26
63202;DHT22;49296;48.188;11.566;2022-11-20T09:55:38;7.58;66.98
63202;DHT22;49296;48.188;11.566;2022-11-20T09:58:05;7.53;67.26
63202;DHT22;49296;48.188;11.566;2022-11-20T10:00:32;7.64;67.13
63202;DHT22;49296;48.188;11.566;2022-11-20T10:03:01;7.67;66.77
63202;DHT22;49296;48.188;11.566;2022-11-20T10:05:31;7.70;66.43
63202;DHT22;49296;48.188;11.566;2022-11-20T10:08:04;7.70;66.09
63202;DHT22;49296;48.188;11.566;2022-11-20T10:10:34;7.79;66.03
63202;DHT22;49296;48.188;11.566;2022-11-20T10:13:06;7.81;65.98
63202;DHT22;49296;48.188;11.566;2022-11-20T10:15:38;7.92;65.94
63202;DHT22;49296;48.188;11.566;2022-11-20T10:18:13;7.85;65.80
63202;DHT22;49296;48.188;11.566;2022-11-20T10:20:46;7.92;66.06
63202;DHT22;49296;48.188;11.566;2022-11-20T10:23:20;7.93;66.26
63202;DHT22;49296;48.188;11.566;2022-11-20T10:25:51;7.96;66.22
63202;DHT22;49296;48.188;11.566;2022-11-20T10:28:25;7.89;65.63
63202;DHT22;49296;48.188;11.566;2022-11-20T10:30:55;7.83;66.14
63202;DHT22;49296;48.188;11.566;2022-11-20T10:33:23;7.88;66.00
63202;DHT22;49296;48.188;11.566;2022-11-20T10:35:52;8.00;65.77
63202;DHT22;49296;48.188;11.566;2022-11-20T10:38:23;7.97;65.90
63202;DHT22;49296;48.188;11.566;2022-11-20T10:40:52;7.92;66.34
63202;DHT22;49296;48.188;11.566;2022-11-20T10:43:21;8.00;65.94
63202;DHT22;49296;48.188;11.566;2022-11-20T10:45:50;8.12;66.29
63202;DHT22;49296;48.188;11.566;2022-11-20T10:48:20;8.10;65.39
63202;DHT22;49296;48.188;11.566;2022-11-20T10:51:03;8.02;64.96
63202;DHT22;49296;48.188;11.566;2022-11-20T10:56:24;8.03;64.51
63202;DHT22;49296;48.188;11.566;2022-11-20T10:59:00;8.02;64.93
63202;DHT22;49296;48.188;11.566;2022-11-20T11:01:28;8.02;65.02
63202;DHT22;49296;48.188;11.566;2022-11-20T11:03:55;7.97;64.94
63202;DHT22;49296;48.188;11.566;2022-11-20T11:06:24;7.97;65.22
63202;DHT22;49296;48.188;11.566;2022-11-20T11:08:53;7.92;65.33
63202;DHT22;49296;48.188;11.566;2022-11-20T11:11:22;8.03;65.40
63202;DHT22;49296;48.188;11.566;2022-11-20T11:13:49;8.07;66.80
63202;DHT22;49296;48.188;11.566;2022-11-20T11:16:18;8.33;66.77
63202;DHT22;49296;48.188;11.566;2022-11-20T11:18:45;8.44;65.71
63202;DHT22;49296;48.188;11.566;2022-11-20T11:21:12;8.45;65.17
63202;DHT22;49296;48.188;11.566;2022-11-20T11:23:41;8.57;66.05
63202;DHT22;49296;48.188;11.566;2022-11-20T11:26:18;8.69;65.35
63202;DHT22;49296;48.188;11.566;2022-11-20T11:28:52;8.48;64.55
63202;DHT22;49296;48.188;11.566;2022-11-20T11:31:21;8.42;64.63
63202;DHT22;49296;48.188;11.566;2022-11-20T11:33:48;8.22;64.77
63202;DHT22;49296;48.188;11.566;2022-11-20T11:36:16;8.23;65.04
63202;DHT22;49296;48.188;11.566;2022-11-20T11:38:45;8.26;64.77
63202;DHT22;49296;48.188;11.566;2022-11-20T11:41:12;8.24;64.95
63202;DHT22;49296;48.188;11.566;2022-11-20T11:43:48;8.09;65.48
63202;DHT22;49296;48.188;11.566;2022-11-20T11:46:33;8.10;65.22
63202;DHT22;49296;48.188;11.566;2022-11-20T11:49:08;8.07;65.43
63202;DHT22;49296;48.188;11.566;2022-11-20T11:51:39;8.23;64.91
63202;DHT22;49296;48.188;11.566;2022-11-20T11:54:13;8.14;65.12
63202;DHT22;49296;48.188;11.566;2022-11-20T11:56:41;8.05;65.44
63202;DHT22;49296;48.188;11.566;2022-11-20T11:59:09;7.99;65.29
63202;DHT22;49296;48.188;11.566;2022-11-20T12:01:40;7.96;65.72
63202;DHT22;49296;48.188;11.566;2022-11-20T12:04:12;8.02;65.55
63202;DHT22;49296;48.188;11.566;2022-11-20T12:06:42;8.03;65.49
63202;DHT22;49296;48.188;11.566;2022-11-20T12:09:09;7.89;65.84
63202;DHT22;49296;48.188;11.566;2022-11-20T12:11:38;7.51;68.58
63202;DHT22;49296;48.188;11.566;2022-11-20T12:14:09;7.46;70.20
63202;DHT22;49296;48.188;11.566;2022-11-20T12:16:39;7.24;70.19
63202;DHT22;49296;48.188;11.566;2022-11-20T12:19:07;7.20;71.28
63202;DHT22;49296;48.188;11.566;2022-11-20T12:21:36;7.27;71.35
63202;DHT22;49296;48.188;11.566;2022-11-20T12:24:23;7.23;71.36
63202;DHT22;49296;48.188;11.566;2022-11-20T12:26:56;7.31;70.50
63202;DHT22;49296;48.188;11.566;2022-11-20T12:29:28;7.28;70.24
63202;DHT22;49296;48.188;11.566;2022-11-20T12:32:03;7.31;70.44
63202;DHT22;49296;48.188;11.566;2022-11-20T12:37:12;7.53;69.64
63202;DHT22;49296;48.188;11.566;2022-11-20T12:39:41;7.55;69.85
63202;DHT22;49296;48.188;11.566;2022-11-20T12:42:34;7.40;70.58
63202;DHT22;49296;48.188;11.566;2022-11-20T12:45:28;7.22;72.09
63202;DHT22;49296;48.188;11.566;2022-11-20T12:48:03;7.23;71.77
63202;DHT22;49296;48.188;11.566;2022-11-20T12:50:37;7.33;71.98
63202;DHT22;49296;48.188;11.566;2022-11-20T12:53:10;7.36;71.80
63202;DHT22;49296;48.188;11.566;2022-11-20T12:55:42;7.37;71.40
63202;DHT22;49296;48.188;11.566;2022-11-20T12:58:12;7.24;71.90
63202;DHT22;49296;48.188;11.566;2022-11-20T13:00:43;7.30;71.85
63202;DHT22;49296;48.188;11.566;2022-11-20T13:05:59;7.43;71.23
63202;DHT22;49296;48.188;11.566;2022-11-20T13:08:29;7.36;71.15
63202;DHT22;49296;48.188;11.566;2022-11-20T13:10:59;7.20;71.47
63202;DHT22;49296;48.188;11.566;2022-11-20T13:13:31;7.06;72.85
63202;DHT22;49296;48.188;11.566;2022-11-20T13:16:00;6.99;72.74
63202;DHT22;49296;48.188;11.566;2022-11-20T13:18:28;7.16;72.12
63202;DHT22;49296;48.188;11.566;2022-11-20T13:20:56;7.08;72.14
63202;DHT22;49296;48.188;11.566;2022-11-20T13:23:23;7.09;72.53
63202;DHT22;49296;48.188;11.566;2022-11-20T13:25:49;7.10;72.90
63202;DHT22;49296;48.188;11.566;2022-11-20T13:28:27;7.06;73.08
63202;DHT22;49296;48.188;11.566;2022-11-20T13:30:56;6.96;72.79
63202;DHT22;49296;48.188;11.566;2022-11-20T13:33:25;6.95;72.96
63202;DHT22;49296;48.188;11.566;2022-11-20T13:35:57;6.91;72.92
63202;DHT22;49296;48.188;11.566;2022-11-20T13:38:24;6.93;73.42
63202;DHT22;49296;48.188;11.566;2022-11-20T13:40:51;6.96;73.21
63202;DHT22;49296;48.188;11.566;2022-11-20T13:43:19;6.95;73.09
63202;DHT22;49296;48.188;11.566;2022-11-20T13:45:55;6.85;73.52
63202;DHT22;49296;48.188;11.566;2022-11-20T13:48:23;6.87;73.45
63202;DHT22;49296;48.188;11.566;2022-11-20T13:50:54;6.88;73.65
63202;DHT22;49296;48.188;11.566;2022-11-20T13:53:27;7.13;73.23
63202;DHT22;49296;48.188;11.566;2022-11-20T13:55:58;7.06;73.23
63202;DHT22;49296;48.188;11.566;2022-11-20T13:58:33;6.91;73.42
63202;DHT22;49296;48.188;11.566;2022-11-20T14:01:09;6.91;73.76
63202;DHT22;49296;48.188;11.566;2022-11-20T14:03:36;7.02;73.63
63202;DHT22;49296;48.188;11.566;2022-11-20T14:06:05;7.10;73.53
63202;DHT22;49296;48.188;11.566;2022-11-20T14:08:33;7.19;73.22
63202;DHT22;49296;48.188;11.566;2022-11-20T14:11:06;7.06;73.44
63202;DHT22;49296;48.188;11.566;2022-11-20T14:13:38;7.16;73.31
63202;DHT22;49296;48.188;11.566;2022-11-20T14:16:05;7.23;73.30
63202;DHT22;49296;48.188;11.566;2022-11-20T14:18:33;7.27;72.77
63202;DHT22;49296;48.188;11.566;2022-11-20T14:21:00;7.20;72.90
63202;DHT22;49296;48.188;11.566;2022-11-20T14:23:27;7.17;73.12
63202;DHT22;49296;48.188;11.566;2022-11-20T14:25:54;7.27;73.02
63202;DHT22;49296;48.188;11.566;2022-11-20T14:28:24;7.30;72.80
63202;DHT22;49296;48.188;11.566;2022-11-20T14:30:51;7.19;72.97
63202;DHT22;49296;48.188;11.566;2022-11-20T14:33:18;7.22;72.76
63202;DHT22;49296;48.188;11.566;2022-11-20T14:35:51;7.15;73.07
63202;DHT22;49296;48.188;11.566;2022-11-20T14:38:20;7.22;72.94
63202;DHT22;49296;48.188;11.566;2022-11-20T14:40:47;7.24;72.92
63202;DHT22;49296;48.188;11.566;2022-11-20T14:43:18;7.23;72.60
63202;DHT22;49296;48.188;11.566;2022-11-20T14:45:46;7.15;72.61
63202;DHT22;49296;48.188;11.566;2022-11-20T14:48:15;7.06;72.52
63202;DHT22;49296;48.188;11.566;2022-11-20T14:50:42;7.06;71.93
63202;DHT22;49296;48.188;11.566;2022-11-20T14:53:10;7.17;71.78
63202;DHT22;49296;48.188;11.566;2022-11-20T14:55:37;7.16;70.81
63202;DHT22;49296;48.188;11.566;2022-11-20T14:58:05;7.12;71.53
63202;DHT22;49296;48.188;11.566;2022-11-20T15:00:32;7.20;71.22
63202;DHT22;49296;48.188;11.566;2022-11-20T15:02:59;7.12;71.08
63202;DHT22;49296;48.188;11.566;2022-11-20T15:05:37;7.08;71.15
63202;DHT22;49296;48.188;11.566;2022-11-20T15:08:11;6.95;71.43
63202;DHT22;49296;48.188;11.566;2022-11-20T15:10:38;6.96;71.43
63202;DHT22;49296;48.188;11.566;2022-11-20T15:13:05;6.95;71.38
63202;DHT22;49296;48.188;11.566;2022-11-20T15:15:39;6.95;71.80
63202;DHT22;49296;48.188;11.566;2022-11-20T15:18:09;6.99;71.25
63202;DHT22;49296;48.188;11.566;2022-11-20T15:20:37;6.89;71.63
63202;DHT22;49296;48.188;11.566;2022-11-20T15:23:07;6.81;71.94
63202;DHT22;49296;48.188;11.566;2022-11-20T15:25:36;6.91;71.70
63202;DHT22;49296;48.188;11.566;2022-11-20T15:28:04;6.87;71.90
63202;DHT22;49296;48.188;11.566;2022-11-20T15:30:30;6.87;71.75
63202;DHT22;49296;48.188;11.566;2022-11-20T15:32:57;6.91;71.47
63202;DHT22;49296;48.188;11.566;2022-11-20T15:35:24;6.95;71.68
63202;DHT22;49296;48.188;11.566;2022-11-20T15:37:51;6.95;71.51
63202;DHT22;49296;48.188;11.566;2022-11-20T15:40:17;7.00;71.50
63202;DHT22;49296;48.188;11.566;2022-11-20T15:42:45;6.91;71.41
63202;DHT22;49296;48.188;11.566;2022-11-20T15:45:26;6.75;71.83